createdAt,value
2022-10-03T00:01:09.452Z,6.50
2022-10-03T00:03:44.757Z,6.85
2022-10-03T00:06:16.815Z,7.17
2022-10-03T00:09:21.725Z,8.20
2022-10-03T00:12:04.627Z,7.07
2022-10-03T00:14:45.521Z,5.85
2022-10-03T00:17:22.287Z,6.82
2022-10-03T00:20:00.409Z,6.97
2022-10-03T00:22:37.443Z,5.55
2022-10-03T00:25:19.637Z,6.85
2022-10-03T00:27:55.196Z,5.65
2022-10-03T00:30:25.198Z,6.07
2022-10-03T00:33:11.749Z,4.73
2022-10-03T00:35:52.363Z,4.78
2022-10-03T00:38:41.981Z,4.78
2022-10-03T00:41:44.608Z,7.28
2022-10-03T00:44:52.350Z,8.10
2022-10-03T00:47:47.678Z,6.78
2022-10-03T00:50:37.937Z,4.85
2022-10-03T00:53:30.762Z,6.05
2022-10-03T00:56:23.636Z,5.40
2022-10-03T00:59:07.969Z,6.85
2022-10-03T01:01:40.457Z,7.53
2022-10-03T01:04:24.167Z,6.68
2022-10-03T01:07:04.002Z,6.50
2022-10-03T01:09:56.335Z,6.78
2022-10-03T01:12:50.129Z,5.47
2022-10-03T01:15:28.219Z,8.00
2022-10-03T01:18:10.198Z,5.13
2022-10-03T01:20:46.881Z,5.30
2022-10-03T01:23:55.248Z,6.72
2022-10-03T01:26:50.826Z,7.85
2022-10-03T01:29:44.585Z,5.20
2022-10-03T01:32:18.641Z,6.00
2022-10-03T01:34:56.592Z,4.93
2022-10-03T01:37:31.855Z,8.23
2022-10-03T01:40:10.388Z,5.75
2022-10-03T01:42:46.007Z,4.93
2022-10-03T01:45:30.456Z,4.45
2022-10-03T01:48:03.124Z,4.93
2022-10-03T01:50:37.715Z,6.97
2022-10-03T01:53:13.448Z,6.13
2022-10-03T01:55:51.293Z,7.10
2022-10-03T01:58:26.996Z,5.30
2022-10-03T02:01:08.268Z,6.90
2022-10-03T02:03:49.652Z,7.85
2022-10-03T02:06:25.262Z,8.02
2022-10-03T02:08:59.951Z,7.55
2022-10-03T02:11:33.314Z,6.93
2022-10-03T02:14:17.003Z,5.45
2022-10-03T02:16:57.379Z,7.93
2022-10-03T02:19:29.654Z,6.82
2022-10-03T02:22:01.267Z,7.60
2022-10-03T02:24:42.354Z,7.80
2022-10-03T02:27:53.406Z,8.13
2022-10-03T02:30:24.261Z,7.63
2022-10-03T02:33:34.224Z,8.43
2022-10-03T02:36:41.734Z,9.03
2022-10-03T02:39:54.163Z,8.82
2022-10-03T02:42:40.922Z,7.38
2022-10-03T02:45:43.300Z,7.82
2022-10-03T02:48:48.266Z,9.07
2022-10-03T02:51:41.389Z,6.77
2022-10-03T02:54:47.946Z,7.47
2022-10-03T02:58:02.898Z,8.85
2022-10-03T03:01:07.866Z,9.00
2022-10-03T03:04:14.363Z,6.35
2022-10-03T03:06:58.558Z,5.55
2022-10-03T03:10:04.845Z,7.10
2022-10-03T03:13:07.105Z,5.57
2022-10-03T03:16:03.457Z,5.20
2022-10-03T03:18:37.896Z,6.43
2022-10-03T03:21:22.214Z,5.17
2022-10-03T03:24:23.359Z,8.50
2022-10-03T03:27:02.107Z,6.25
2022-10-03T03:29:41.921Z,5.47
2022-10-03T03:32:20.413Z,7.95
2022-10-03T03:34:58.062Z,6.13
2022-10-03T03:37:35.547Z,5.20
2022-10-03T03:40:24.670Z,8.13
2022-10-03T03:43:13.167Z,5.88
2022-10-03T03:45:50.648Z,4.87
2022-10-03T03:48:39.682Z,4.63
2022-10-03T03:51:21.837Z,6.20
2022-10-03T03:54:13.866Z,6.40
2022-10-03T03:57:02.408Z,4.97
2022-10-03T03:59:47.255Z,6.55
2022-10-03T04:02:27.816Z,8.07
2022-10-03T04:05:09.086Z,10.57
2022-10-03T04:07:53.185Z,9.35
2022-10-03T04:10:32.193Z,8.82
2022-10-03T04:13:19.498Z,9.63
2022-10-03T04:16:01.303Z,8.47
2022-10-03T04:18:58.157Z,8.30
2022-10-03T04:21:49.024Z,9.50
2022-10-03T04:24:31.938Z,8.15
2022-10-03T04:27:14.888Z,6.20
2022-10-03T04:29:56.542Z,5.72
2022-10-03T04:32:40.028Z,6.85
2022-10-03T04:35:35.216Z,5.32
2022-10-03T04:38:14.378Z,5.40
2022-10-03T04:40:49.603Z,4.70
2022-10-03T04:43:34.888Z,4.60
2022-10-03T04:46:19.814Z,7.35
2022-10-03T04:48:52.651Z,6.10
2022-10-03T04:51:30.703Z,5.33
2022-10-03T04:54:04.684Z,8.35
2022-10-03T04:56:43.603Z,5.57
2022-10-03T04:59:29.766Z,5.82
2022-10-03T05:02:03.585Z,6.40
2022-10-03T05:04:40.397Z,8.63
2022-10-03T05:07:14.974Z,8.23
2022-10-03T05:09:49.625Z,7.35
2022-10-03T05:12:28.170Z,8.13
2022-10-03T05:15:12.839Z,8.20
2022-10-03T05:17:49.857Z,10.53
2022-10-03T05:20:29.211Z,9.80
2022-10-03T05:23:04.267Z,8.80
2022-10-03T05:25:53.586Z,10.80
2022-10-03T05:28:32.137Z,11.98
2022-10-03T05:31:07.612Z,12.25
2022-10-03T05:33:48.305Z,10.55
2022-10-03T05:36:28.267Z,11.32
2022-10-03T05:39:25.575Z,13.65
2022-10-03T05:42:17.742Z,10.15
2022-10-03T05:44:46.950Z,12.25
2022-10-03T05:47:49.026Z,11.32
2022-10-03T05:50:57.674Z,11.63
2022-10-03T05:54:02.949Z,11.65
2022-10-03T05:56:50.400Z,11.00
2022-10-03T05:59:44.007Z,10.02
2022-10-03T06:02:47.690Z,10.40
2022-10-03T06:05:25.035Z,10.20
2022-10-03T06:08:21.560Z,10.60
2022-10-03T06:10:52.994Z,9.13
2022-10-03T06:13:30.546Z,8.53
2022-10-03T06:16:05.512Z,10.13
2022-10-03T06:18:54.981Z,9.23
2022-10-03T06:21:55.393Z,10.30
2022-10-03T06:25:05.633Z,10.45
2022-10-03T06:28:30.526Z,9.65
2022-10-03T06:31:21.037Z,10.30
2022-10-03T06:34:17.563Z,7.72
2022-10-03T06:37:02.089Z,10.68
2022-10-03T06:39:56.502Z,9.93
2022-10-03T06:42:56.335Z,11.77
2022-10-03T06:46:13.256Z,12.20
2022-10-03T06:49:18.717Z,11.00
2022-10-03T06:52:26.705Z,11.25
2022-10-03T06:55:20.626Z,11.25
2022-10-03T06:58:23.295Z,10.00
2022-10-03T07:01:05.966Z,10.27
2022-10-03T07:03:55.061Z,10.15
2022-10-03T07:06:46.110Z,11.25
2022-10-03T07:09:53.873Z,11.43
2022-10-03T07:13:02.477Z,11.10
2022-10-03T07:16:25.356Z,9.20
2022-10-03T07:19:26.798Z,10.23
2022-10-03T07:22:34.098Z,10.13
2022-10-03T07:25:26.977Z,10.30
2022-10-03T07:28:08.787Z,10.35
2022-10-03T07:30:59.700Z,10.45
2022-10-03T07:33:51.724Z,10.00
2022-10-03T07:36:50.952Z,9.70
2022-10-03T07:39:54.138Z,9.88
2022-10-03T07:42:53.959Z,7.13
2022-10-03T07:45:34.655Z,8.90
2022-10-03T07:48:38.077Z,6.77
2022-10-03T07:51:23.983Z,5.65
2022-10-03T07:54:24.487Z,7.40
2022-10-03T07:57:23.030Z,8.45
2022-10-03T08:00:10.273Z,7.80
2022-10-03T08:03:42.203Z,7.83
2022-10-03T08:06:23.717Z,7.38
2022-10-03T08:09:09.891Z,7.20
2022-10-03T08:12:01.454Z,7.38
2022-10-03T08:14:39.607Z,6.30
2022-10-03T08:17:37.388Z,6.10
2022-10-03T08:20:23.617Z,6.10
2022-10-03T08:23:08.826Z,6.20
2022-10-03T08:25:54.524Z,5.70
2022-10-03T08:28:45.905Z,5.40
2022-10-03T08:31:58.337Z,4.70
2022-10-03T08:34:44.526Z,6.27
2022-10-03T08:38:03.381Z,5.60
2022-10-03T08:41:20.123Z,7.10
2022-10-03T08:44:14.544Z,7.13
2022-10-03T08:47:18.399Z,5.93
2022-10-03T08:50:23.626Z,7.30
2022-10-03T08:53:20.535Z,6.10
2022-10-03T08:56:00.775Z,6.47
2022-10-03T08:58:59.574Z,5.23
2022-10-03T09:01:41.157Z,6.50
2022-10-03T09:04:46.391Z,5.35
2022-10-03T09:08:04.872Z,6.03
2022-10-03T09:10:59.090Z,5.80
2022-10-03T09:13:58.717Z,7.23
2022-10-03T09:16:52.485Z,5.15
2022-10-03T09:19:52.430Z,6.50
2022-10-03T09:22:53.683Z,6.53
2022-10-03T09:25:37.074Z,4.97
2022-10-03T09:28:42.512Z,6.30
2022-10-03T09:31:23.264Z,5.13
2022-10-03T09:34:28.755Z,5.10
2022-10-03T09:37:18.703Z,6.13
2022-10-03T09:40:26.216Z,5.15
2022-10-03T09:43:28.702Z,5.05
2022-10-03T09:46:46.291Z,4.53
2022-10-03T09:49:40.360Z,5.72
2022-10-03T09:52:24.616Z,5.82
2022-10-03T09:55:18.127Z,5.18
2022-10-03T09:58:11.684Z,5.23
2022-10-03T10:01:08.348Z,5.05
2022-10-03T10:04:12.307Z,5.00
2022-10-03T10:07:10.210Z,5.00
2022-10-03T10:10:03.206Z,5.57
2022-10-03T10:13:08.935Z,5.75
2022-10-03T10:15:59.664Z,5.20
2022-10-03T10:18:59.893Z,5.80
2022-10-03T10:21:55.836Z,6.03
2022-10-03T10:24:50.105Z,6.40
2022-10-03T10:27:37.755Z,6.50
2022-10-03T10:30:18.607Z,6.20
2022-10-03T10:33:31.783Z,6.78
2022-10-03T10:36:35.061Z,6.53
2022-10-03T10:39:32.869Z,6.13
2022-10-03T10:42:37.886Z,5.50
2022-10-03T10:45:40.056Z,7.00
2022-10-03T10:49:07.765Z,7.38
2022-10-03T10:52:06.775Z,7.22
2022-10-03T10:55:03.616Z,6.90
2022-10-03T10:58:18.292Z,6.03
2022-10-03T11:01:14.892Z,6.10
2022-10-03T11:04:19.266Z,5.82
2022-10-03T11:07:19.877Z,5.30
2022-10-03T11:10:28.336Z,4.30
2022-10-03T11:13:23.202Z,3.93
2022-10-03T11:16:22.057Z,4.10
2022-10-03T11:19:27.400Z,3.60
2022-10-03T11:22:49.952Z,3.58
2022-10-03T11:26:05.157Z,4.30
2022-10-03T11:29:18.893Z,4.33
2022-10-03T11:32:25.114Z,3.95
2022-10-03T11:35:21.779Z,4.05
2022-10-03T11:37:54.105Z,4.63
2022-10-03T11:40:32.346Z,4.72
2022-10-03T11:43:38.261Z,4.40
2022-10-03T11:46:23.646Z,3.00
2022-10-03T11:48:57.482Z,3.67
2022-10-03T11:51:40.956Z,3.80
2022-10-03T11:54:31.555Z,3.10
2022-10-03T11:57:04.767Z,2.90
2022-10-03T11:59:56.251Z,3.75
2022-10-03T12:02:42.168Z,3.47
2022-10-03T12:05:20.853Z,3.60
2022-10-03T12:08:17.025Z,3.42
2022-10-03T12:10:54.483Z,3.30
2022-10-03T12:13:32.413Z,2.78
2022-10-03T12:16:03.887Z,3.30
2022-10-03T12:18:51.677Z,3.90
2022-10-03T12:21:25.475Z,3.60
2022-10-03T12:24:20.562Z,3.17
2022-10-03T12:26:54.506Z,3.10
2022-10-03T12:29:25.763Z,3.38
2022-10-03T12:32:05.806Z,2.88
2022-10-03T12:34:40.404Z,3.15
2022-10-03T12:37:34.049Z,3.60
2022-10-03T12:40:06.930Z,3.17
2022-10-03T12:42:43.490Z,3.22
2022-10-03T12:45:21.339Z,3.45
2022-10-03T12:48:01.598Z,3.10
2022-10-03T12:50:40.499Z,2.83
2022-10-03T12:53:25.224Z,2.60
2022-10-03T12:56:08.117Z,2.57
2022-10-03T12:58:49.165Z,2.60
2022-10-03T13:01:26.470Z,2.67
2022-10-03T13:03:56.490Z,2.50
2022-10-03T13:07:02.752Z,2.80
2022-10-03T13:09:56.319Z,2.90
2022-10-03T13:12:39.170Z,2.73
2022-10-03T13:15:44.278Z,2.70
2022-10-03T13:18:31.347Z,2.80
2022-10-03T13:21:33.259Z,2.92
2022-10-03T13:24:02.123Z,2.97
2022-10-03T13:26:47.622Z,2.80
2022-10-03T13:29:25.818Z,2.85
2022-10-03T13:32:06.188Z,3.40
2022-10-03T13:34:58.028Z,2.75
2022-10-03T13:37:36.441Z,2.20
2022-10-03T13:40:09.199Z,2.50
2022-10-03T13:42:42.276Z,2.75
2022-10-03T13:45:16.259Z,2.90
2022-10-03T13:47:47.403Z,3.00
2022-10-03T13:50:19.549Z,2.40
2022-10-03T13:52:53.423Z,2.13
2022-10-03T13:55:44.094Z,2.42
2022-10-03T13:58:25.065Z,2.15
2022-10-03T14:01:21.679Z,2.27
2022-10-03T14:04:06.700Z,2.33
2022-10-03T14:06:41.226Z,2.25
2022-10-03T14:09:36.469Z,2.10
2022-10-03T14:12:13.140Z,2.28
2022-10-03T14:15:10.080Z,2.53
2022-10-03T14:17:46.123Z,2.13
2022-10-03T14:20:25.561Z,1.90
2022-10-03T14:23:17.164Z,2.10
2022-10-03T14:25:52.785Z,2.05
2022-10-03T14:28:29.646Z,2.20
2022-10-03T14:31:14.641Z,2.60
2022-10-03T14:33:48.256Z,2.40
2022-10-03T14:36:35.261Z,2.30
2022-10-03T14:39:17.173Z,2.05
2022-10-03T14:41:48.485Z,2.10
2022-10-03T14:44:21.145Z,2.00
2022-10-03T14:46:55.368Z,2.30
2022-10-03T14:52:26.885Z,1.70
2022-10-03T14:54:57.761Z,2.20
2022-10-03T14:57:43.613Z,2.10
2022-10-03T15:00:35.612Z,2.10
2022-10-03T15:03:22.468Z,2.22
2022-10-03T15:06:19.695Z,2.17
2022-10-03T15:08:51.815Z,2.00
2022-10-03T15:11:28.125Z,2.08
2022-10-03T15:14:02.423Z,2.30
2022-10-03T15:16:34.523Z,1.70
2022-10-03T15:19:10.873Z,2.17
2022-10-03T15:21:44.021Z,2.10
2022-10-03T15:24:24.369Z,2.27
2022-10-03T15:26:58.709Z,2.20
2022-10-03T15:29:27.354Z,2.05
2022-10-03T15:31:58.656Z,2.20
2022-10-03T15:34:34.090Z,2.05
2022-10-03T15:37:08.009Z,2.40
2022-10-03T15:39:40.569Z,2.50
2022-10-03T15:42:23.736Z,2.43
2022-10-03T15:44:54.575Z,2.30
2022-10-03T15:47:25.304Z,1.95
2022-10-03T15:50:07.320Z,2.40
2022-10-03T15:52:41.384Z,2.17
2022-10-03T15:55:25.497Z,2.50
2022-10-03T15:58:06.810Z,2.50
2022-10-03T16:00:37.745Z,2.23
2022-10-03T16:03:14.887Z,2.40
2022-10-03T16:05:56.625Z,2.63
2022-10-03T16:08:30.355Z,2.30
2022-10-03T16:11:09.056Z,2.60
2022-10-03T16:13:40.981Z,2.38
2022-10-03T16:16:14.926Z,2.73
2022-10-03T16:19:03.913Z,2.90
2022-10-03T16:21:43.087Z,2.50
2022-10-03T16:24:23.455Z,2.08
2022-10-03T16:26:57.397Z,2.30
2022-10-03T16:29:29.062Z,2.80
2022-10-03T16:32:02.879Z,2.72
2022-10-03T16:34:34.365Z,3.30
2022-10-03T16:37:06.233Z,3.85
2022-10-03T16:39:37.462Z,3.78
2022-10-03T16:42:13.153Z,3.50
2022-10-03T16:44:50.000Z,3.50
2022-10-03T16:47:21.728Z,4.47
2022-10-03T16:50:13.131Z,4.00
2022-10-03T16:52:44.251Z,3.90
2022-10-03T16:55:22.482Z,3.37
2022-10-03T16:57:56.745Z,3.40
2022-10-03T17:00:30.057Z,4.10
2022-10-03T17:02:58.395Z,3.33
2022-10-03T17:05:26.906Z,3.22
2022-10-03T17:08:06.601Z,3.37
2022-10-03T17:10:42.067Z,3.15
2022-10-03T17:13:16.254Z,3.20
2022-10-03T17:15:52.127Z,3.47
2022-10-03T17:18:26.252Z,3.00
2022-10-03T17:20:57.768Z,3.13
2022-10-03T17:23:35.746Z,3.17
2022-10-03T17:26:10.073Z,3.58
2022-10-03T17:28:42.411Z,3.17
2022-10-03T17:31:28.655Z,3.92
2022-10-03T17:34:09.979Z,4.40
2022-10-03T17:37:06.237Z,4.87
2022-10-03T17:39:49.090Z,4.88
2022-10-03T17:42:29.111Z,4.97
2022-10-03T17:45:04.119Z,5.07
2022-10-03T17:47:40.436Z,4.57
2022-10-03T17:50:16.938Z,4.40
2022-10-03T17:52:47.325Z,3.90
2022-10-03T17:55:19.512Z,3.22
2022-10-03T17:57:52.086Z,3.70
2022-10-03T18:00:22.922Z,3.58
2022-10-03T18:03:00.370Z,4.93
2022-10-03T18:05:31.544Z,5.95
2022-10-03T18:08:05.323Z,7.30
2022-10-03T18:10:38.908Z,5.30
2022-10-03T18:13:18.058Z,4.90
2022-10-03T18:16:12.554Z,4.67
2022-10-03T18:18:59.696Z,4.03
2022-10-03T18:21:39.419Z,4.38
2022-10-03T18:24:51.061Z,4.38
2022-10-03T18:27:58.617Z,4.63
2022-10-03T18:30:36.009Z,4.07
2022-10-03T18:33:07.304Z,4.85
2022-10-03T18:35:37.848Z,6.68
2022-10-03T18:38:15.142Z,7.00
2022-10-03T18:40:47.453Z,7.13
2022-10-03T18:43:35.049Z,6.97
2022-10-03T18:46:19.054Z,4.93
2022-10-03T18:49:28.363Z,7.95
2022-10-03T18:51:51.295Z,5.43
2022-10-03T18:54:29.393Z,7.03
2022-10-03T18:57:07.190Z,6.47
2022-10-03T18:59:46.063Z,6.10
2022-10-03T19:02:22.769Z,6.93
2022-10-03T19:04:54.749Z,5.30
2022-10-03T19:07:25.189Z,7.72
2022-10-03T19:10:31.545Z,8.32
2022-10-03T19:13:05.683Z,6.13
2022-10-03T19:15:49.965Z,5.27
2022-10-03T19:18:27.891Z,6.10
2022-10-03T19:20:59.556Z,6.43
2022-10-03T19:23:36.069Z,7.80
2022-10-03T19:26:08.462Z,6.43
2022-10-03T19:28:40.288Z,9.23
2022-10-03T19:31:20.668Z,10.35
2022-10-03T19:33:52.677Z,7.43
2022-10-03T19:36:23.811Z,5.75
2022-10-03T19:38:54.270Z,8.93
2022-10-03T19:41:28.329Z,7.10
2022-10-03T19:43:56.998Z,8.95
2022-10-03T19:46:45.956Z,8.60
2022-10-03T19:49:33.327Z,9.60
2022-10-03T19:52:15.649Z,8.30
2022-10-03T19:54:51.340Z,7.40
2022-10-03T19:57:23.366Z,6.78
2022-10-03T19:59:53.940Z,7.80
2022-10-03T20:02:25.130Z,7.30
2022-10-03T20:04:55.308Z,6.78
2022-10-03T20:07:38.517Z,7.35
2022-10-03T20:10:22.346Z,6.00
2022-10-03T20:12:53.485Z,8.25
2022-10-03T20:15:25.090Z,8.23
2022-10-03T20:18:01.896Z,6.38
2022-10-03T20:20:33.934Z,5.28
2022-10-03T20:23:06.745Z,6.97
2022-10-03T20:25:40.186Z,6.55
2022-10-03T20:28:17.723Z,7.03
2022-10-03T20:30:48.527Z,13.63
2022-10-03T20:33:22.869Z,12.57
2022-10-03T20:35:59.755Z,8.88
2022-10-03T20:38:42.513Z,8.10
2022-10-03T20:41:15.791Z,8.32
2022-10-03T20:43:53.479Z,7.38
2022-10-03T20:46:25.697Z,7.75
2022-10-03T20:49:17.069Z,6.93
2022-10-03T20:51:55.869Z,6.00
2022-10-03T20:54:27.383Z,5.15
2022-10-03T20:56:59.521Z,7.95
2022-10-03T20:59:37.499Z,6.80
2022-10-03T21:02:15.079Z,6.03
2022-10-03T21:04:53.404Z,7.70
2022-10-03T21:07:29.386Z,5.47
2022-10-03T21:10:03.167Z,6.90
2022-10-03T21:12:36.500Z,7.18
2022-10-03T21:15:11.325Z,8.02
2022-10-03T21:17:39.620Z,7.82
2022-10-03T21:20:16.206Z,6.50
2022-10-03T21:22:50.980Z,7.28
2022-10-03T21:25:22.380Z,7.07
2022-10-03T21:27:54.662Z,7.20
2022-10-03T21:30:34.914Z,4.63
2022-10-03T21:33:12.451Z,4.93
2022-10-03T21:35:44.476Z,6.30
2022-10-03T21:38:20.264Z,7.03
2022-10-03T21:41:22.844Z,7.75
2022-10-03T21:43:54.935Z,6.23
2022-10-03T21:46:35.476Z,6.57
2022-10-03T21:49:20.776Z,7.10
2022-10-03T21:52:22.319Z,6.95
2022-10-03T21:55:01.596Z,6.40
2022-10-03T21:57:44.828Z,6.50
2022-10-03T22:00:16.304Z,6.40
2022-10-03T22:02:58.383Z,8.40
2022-10-03T22:05:37.218Z,7.27
2022-10-03T22:08:15.834Z,7.30
2022-10-03T22:10:58.141Z,6.57
2022-10-03T22:13:30.116Z,7.20
2022-10-03T22:16:05.200Z,7.03
2022-10-03T22:18:52.351Z,6.18
2022-10-03T22:21:26.048Z,7.07
2022-10-03T22:24:05.813Z,5.35
2022-10-03T22:26:39.558Z,4.80
2022-10-03T22:29:22.681Z,6.77
2022-10-03T22:31:56.972Z,5.85
2022-10-03T22:34:37.533Z,5.50
2022-10-03T22:37:05.316Z,6.85
2022-10-03T22:39:36.139Z,8.00
2022-10-03T22:42:05.686Z,7.13
2022-10-03T22:44:35.565Z,7.40
2022-10-03T22:47:12.101Z,7.45
2022-10-03T22:49:42.398Z,7.57
2022-10-03T22:52:18.346Z,8.10
2022-10-03T22:54:50.487Z,7.75
2022-10-03T22:57:19.130Z,6.60
2022-10-03T22:59:51.238Z,7.40
2022-10-03T23:02:26.630Z,7.70
2022-10-03T23:04:58.552Z,7.43
2022-10-03T23:07:49.173Z,5.60
2022-10-03T23:10:43.597Z,4.77
2022-10-03T23:13:18.171Z,6.65
2022-10-03T23:15:50.134Z,7.25
2022-10-03T23:18:40.087Z,6.75
2022-10-03T23:21:09.691Z,7.70
2022-10-03T23:23:44.399Z,7.20
2022-10-03T23:26:50.598Z,7.72
2022-10-03T23:29:19.760Z,7.25
2022-10-03T23:31:53.555Z,6.65
2022-10-03T23:35:09.658Z,6.60
2022-10-03T23:37:42.295Z,4.70
2022-10-03T23:40:45.290Z,6.55
2022-10-03T23:43:31.811Z,4.43
2022-10-03T23:46:01.986Z,6.53
2022-10-03T23:48:33.388Z,7.90
2022-10-03T23:51:04.024Z,8.60
2022-10-03T23:53:38.564Z,7.47
2022-10-03T23:56:23.754Z,6.40
2022-10-03T23:58:57.611Z,4.30
